Manistee, MI

11:31 AM EDT on August 31, 2015 (GMT -0400)
Manistee County-Blacker | | Change Station
CLOSE
Current Station
Airport
Location: Manistee,
Elevation: 620 ft
Nearby Weather Stations

Elev 620 ft 44.27 °N, 86.25 °W | Updated 16 minutes ago

Overcast
Overcast
66 °F
Feels Like 66 °F
N
5
Wind Variable Wind from South

Today
High -- | Low -- °F
--% Chance of Precip.
Yesterday
High -- | Low -- °F
Precip. -- in
7:06 AM 8:23 PM
Waning Gibbous, 95% visible
Pressure 30.07 in
Visibility 9.0 miles
Clouds Overcast 800 ft
Dew Point 64 °F
Humidity 94%
Rainfall 0.00 in
Snow Depth Not available.
UV 2 out of 12
Pollen 10.90 out of 12
Air Quality Not available.
Flu Activity Not available.
METAR KMBL 311515Z AUTO 18004KT 9SM OVC008 19/18 A3007 RMK AO1
Pressure 30.07 in
Visibility 9.0 miles
Clouds Overcast 800 ft
Dew Point 64 °F
Humidity 94%
Rainfall 0.00 in
Snow Depth Not available.
UV 2 out of 12
Pollen 10.90 out of 12
Air Quality Not available.
Flu Activity Not available.
METAR KMBL 311515Z AUTO 18004KT 9SM OVC008 19/18 A3007 RMK AO1
Nowcast | as of 11:00 am EDT on August 31, 2015

At 12 PM...partly cloudy. Temperature 73. Southwest winds 8 mph. At 2 PM...partly cloudy. Temperature 78. Southwest winds 10 mph. At 4 PM...mostly clear. Temperature 78. Southwest winds 10 mph. At 6 PM...mostly clear. Temperature 78. Southwest winds 9 mph.

×

10-Day Weather Forecast

×

Almanac

Astronomy

Aug. 31, 2015 Rise Set
Actual Time
Civil Twilight
Nautical Twilight
Astronomical Twilight
Moon
Length of Visible Light
Length of Day
Tomorrow will be .
, % of the Moon is Illuminated

Today's Extremes

State Highs State Lows

Community

WunderPhotos

Upload Photos

1,851,282 photos uploaded!

WunderBlogs® & News

Nearby

Air Quality

  Air Quality AQ Index Pollutant
Not available.

Snow Depth

Station Depth Elevation

Earthquake Activity

City Distance Mag. Time & Date
Minimum magnitude displayed is 2.5.

Coastal Water Temperatures

Place Temperature

Stations

Nearby Weather Stations

Station Location Temp. Windchill Dew Point Humidity Wind Precip. Elev Updated Type